sensor_id;sensor_type;location;lat;lon;timestamp;temperature;humidity
10417;DHT22;62605;49.432;8.680;2022-09-06T00:01:20;19.50;99.90
10417;DHT22;62605;49.432;8.680;2022-09-06T00:03:48;19.40;99.90
10417;DHT22;62605;49.432;8.680;2022-09-06T00:06:17;19.50;99.90
10417;DHT22;62605;49.432;8.680;2022-09-06T00:08:45;19.50;99.90
10417;DHT22;62605;49.432;8.680;2022-09-06T00:11:13;19.50;99.90
10417;DHT22;62605;49.432;8.680;2022-09-06T00:13:42;19.60;99.90
10417;DHT22;62605;49.432;8.680;2022-09-06T00:16:12;19.60;99.90
10417;DHT22;62605;49.432;8.680;2022-09-06T00:18:40;19.80;99.90
10417;DHT22;62605;49.432;8.680;2022-09-06T00:21:13;19.80;99.90
10417;DHT22;62605;49.432;8.680;2022-09-06T00:23:41;19.80;99.90
10417;DHT22;62605;49.432;8.680;2022-09-06T00:26:08;19.80;99.90
10417;DHT22;62605;49.432;8.680;2022-09-06T00:28:35;19.70;99.90
10417;DHT22;62605;49.432;8.680;2022-09-06T00:31:14;19.60;99.90
10417;DHT22;62605;49.432;8.680;2022-09-06T00:33:42;19.70;99.90
10417;DHT22;62605;49.432;8.680;2022-09-06T00:36:10;19.80;99.90
10417;DHT22;62605;49.432;8.680;2022-09-06T00:38:38;19.80;99.90
10417;DHT22;62605;49.432;8.680;2022-09-06T00:41:06;19.80;99.90
10417;DHT22;62605;49.432;8.680;2022-09-06T00:43:33;19.80;99.90
10417;DHT22;62605;49.432;8.680;2022-09-06T00:46:01;19.80;99.90
10417;DHT22;62605;49.432;8.680;2022-09-06T00:48:30;19.80;99.90
10417;DHT22;62605;49.432;8.680;2022-09-06T00:51:00;19.80;99.90
10417;DHT22;62605;49.432;8.680;2022-09-06T00:53:29;19.80;99.90
10417;DHT22;62605;49.432;8.680;2022-09-06T00:55:57;19.80;99.90
10417;DHT22;62605;49.432;8.680;2022-09-06T00:58:24;19.70;99.90
10417;DHT22;62605;49.432;8.680;2022-09-06T01:00:52;19.60;99.90
10417;DHT22;62605;49.432;8.680;2022-09-06T01:03:21;19.60;99.90
10417;DHT22;62605;49.432;8.680;2022-09-06T01:05:59;19.50;99.90
10417;DHT22;62605;49.432;8.680;2022-09-06T01:08:36;19.50;99.90
10417;DHT22;62605;49.432;8.680;2022-09-06T01:11:20;19.60;99.90
10417;DHT22;62605;49.432;8.680;2022-09-06T01:13:56;19.50;99.90
10417;DHT22;62605;49.432;8.680;2022-09-06T01:16:32;19.50;99.90
10417;DHT22;62605;49.432;8.680;2022-09-06T01:19:25;19.50;99.90
10417;DHT22;62605;49.432;8.680;2022-09-06T01:22:09;19.50;99.90
10417;DHT22;62605;49.432;8.680;2022-09-06T01:25:00;19.60;99.90
10417;DHT22;62605;49.432;8.680;2022-09-06T01:30:33;19.50;99.90
10417;DHT22;62605;49.432;8.680;2022-09-06T01:33:11;19.60;99.90
10417;DHT22;62605;49.432;8.680;2022-09-06T01:35:46;19.60;99.90
10417;DHT22;62605;49.432;8.680;2022-09-06T01:38:14;19.50;99.90
10417;DHT22;62605;49.432;8.680;2022-09-06T01:40:42;19.50;99.90
10417;DHT22;62605;49.432;8.680;2022-09-06T01:43:21;19.50;99.90
10417;DHT22;62605;49.432;8.680;2022-09-06T01:45:56;19.10;99.90
10417;DHT22;62605;49.432;8.680;2022-09-06T01:48:34;19.10;99.90
10417;DHT22;62605;49.432;8.680;2022-09-06T01:51:11;19.30;99.90
10417;DHT22;62605;49.432;8.680;2022-09-06T01:54:07;19.30;99.90
10417;DHT22;62605;49.432;8.680;2022-09-06T01:56:50;19.40;99.90
10417;DHT22;62605;49.432;8.680;2022-09-06T01:59:32;19.40;99.90
10417;DHT22;62605;49.432;8.680;2022-09-06T02:02:04;19.50;99.90
10417;DHT22;62605;49.432;8.680;2022-09-06T02:04:40;19.60;99.90
10417;DHT22;62605;49.432;8.680;2022-09-06T02:07:13;19.70;99.90
10417;DHT22;62605;49.432;8.680;2022-09-06T02:09:44;19.70;99.90
10417;DHT22;62605;49.432;8.680;2022-09-06T02:12:14;19.80;99.90
10417;DHT22;62605;49.432;8.680;2022-09-06T02:14:48;19.80;99.90
10417;DHT22;62605;49.432;8.680;2022-09-06T02:17:19;19.80;99.90
10417;DHT22;62605;49.432;8.680;2022-09-06T02:19:50;19.90;99.90
10417;DHT22;62605;49.432;8.680;2022-09-06T02:22:23;20.00;99.90
10417;DHT22;62605;49.432;8.680;2022-09-06T02:24:52;20.10;99.90
10417;DHT22;62605;49.432;8.680;2022-09-06T02:27:22;20.20;99.90
10417;DHT22;62605;49.432;8.680;2022-09-06T02:29:51;20.30;99.90
10417;DHT22;62605;49.432;8.680;2022-09-06T02:32:20;20.30;99.90
10417;DHT22;62605;49.432;8.680;2022-09-06T02:34:49;20.10;99.90
10417;DHT22;62605;49.432;8.680;2022-09-06T02:37:17;20.00;99.90
10417;DHT22;62605;49.432;8.680;2022-09-06T02:39:44;19.90;99.90
10417;DHT22;62605;49.432;8.680;2022-09-06T02:42:13;19.80;99.90
10417;DHT22;62605;49.432;8.680;2022-09-06T02:44:42;19.70;99.90
10417;DHT22;62605;49.432;8.680;2022-09-06T02:47:11;19.60;99.90
10417;DHT22;62605;49.432;8.680;2022-09-06T02:49:38;19.60;99.90
10417;DHT22;62605;49.432;8.680;2022-09-06T02:52:05;19.50;99.90
10417;DHT22;62605;49.432;8.680;2022-09-06T02:54:32;19.40;99.90
10417;DHT22;62605;49.432;8.680;2022-09-06T02:56:59;19.40;99.90
10417;DHT22;62605;49.432;8.680;2022-09-06T02:59:26;19.40;99.90
10417;DHT22;62605;49.432;8.680;2022-09-06T03:01:53;19.40;99.90
10417;DHT22;62605;49.432;8.680;2022-09-06T03:04:22;19.40;99.90
10417;DHT22;62605;49.432;8.680;2022-09-06T03:06:49;19.30;99.90
10417;DHT22;62605;49.432;8.680;2022-09-06T03:09:16;19.30;99.90
10417;DHT22;62605;49.432;8.680;2022-09-06T03:11:43;19.30;99.90
10417;DHT22;62605;49.432;8.680;2022-09-06T03:14:10;19.40;99.90
10417;DHT22;62605;49.432;8.680;2022-09-06T03:16:37;19.40;99.90
10417;DHT22;62605;49.432;8.680;2022-09-06T03:19:04;19.50;99.90
10417;DHT22;62605;49.432;8.680;2022-09-06T03:21:33;19.50;99.90
10417;DHT22;62605;49.432;8.680;2022-09-06T03:24:00;19.40;99.90
10417;DHT22;62605;49.432;8.680;2022-09-06T03:26:28;19.40;99.90
10417;DHT22;62605;49.432;8.680;2022-09-06T03:28:55;19.40;99.90
10417;DHT22;62605;49.432;8.680;2022-09-06T03:31:22;19.40;99.90
10417;DHT22;62605;49.432;8.680;2022-09-06T03:33:49;19.40;99.90
10417;DHT22;62605;49.432;8.680;2022-09-06T03:36:16;19.50;99.90
10417;DHT22;62605;49.432;8.680;2022-09-06T03:38:45;19.60;99.90
10417;DHT22;62605;49.432;8.680;2022-09-06T03:41:12;19.70;99.90
10417;DHT22;62605;49.432;8.680;2022-09-06T03:43:40;19.80;99.90
10417;DHT22;62605;49.432;8.680;2022-09-06T03:46:07;19.70;99.90
10417;DHT22;62605;49.432;8.680;2022-09-06T03:48:34;19.60;99.90
10417;DHT22;62605;49.432;8.680;2022-09-06T03:51:01;19.50;99.90
10417;DHT22;62605;49.432;8.680;2022-09-06T03:53:28;19.40;99.90
10417;DHT22;62605;49.432;8.680;2022-09-06T03:55:57;19.60;99.90
10417;DHT22;62605;49.432;8.680;2022-09-06T03:58:28;19.90;99.90
10417;DHT22;62605;49.432;8.680;2022-09-06T04:01:00;20.00;99.90
10417;DHT22;62605;49.432;8.680;2022-09-06T04:03:28;19.90;99.90
10417;DHT22;62605;49.432;8.680;2022-09-06T04:05:55;19.80;99.90
10417;DHT22;62605;49.432;8.680;2022-09-06T04:08:22;19.80;99.90
10417;DHT22;62605;49.432;8.680;2022-09-06T04:10:49;19.90;99.90
10417;DHT22;62605;49.432;8.680;2022-09-06T04:13:18;19.80;99.90
10417;DHT22;62605;49.432;8.680;2022-09-06T04:15:45;19.60;99.90
10417;DHT22;62605;49.432;8.680;2022-09-06T04:18:13;19.40;99.90
10417;DHT22;62605;49.432;8.680;2022-09-06T04:20:40;19.30;99.90
10417;DHT22;62605;49.432;8.680;2022-09-06T04:23:08;19.40;99.90
10417;DHT22;62605;49.432;8.680;2022-09-06T04:25:35;19.20;99.90
10417;DHT22;62605;49.432;8.680;2022-09-06T04:28:02;19.10;99.90
10417;DHT22;62605;49.432;8.680;2022-09-06T04:30:31;18.90;99.90
10417;DHT22;62605;49.432;8.680;2022-09-06T04:32:58;18.80;99.90
10417;DHT22;62605;49.432;8.680;2022-09-06T04:35:25;18.80;99.90
10417;DHT22;62605;49.432;8.680;2022-09-06T04:37:52;18.70;99.90
10417;DHT22;62605;49.432;8.680;2022-09-06T04:40:19;18.60;99.90
10417;DHT22;62605;49.432;8.680;2022-09-06T04:42:46;18.60;99.90
10417;DHT22;62605;49.432;8.680;2022-09-06T04:45:13;18.60;99.90
10417;DHT22;62605;49.432;8.680;2022-09-06T04:47:42;18.50;99.90
10417;DHT22;62605;49.432;8.680;2022-09-06T04:50:09;18.50;99.90
10417;DHT22;62605;49.432;8.680;2022-09-06T04:52:36;18.50;99.90
10417;DHT22;62605;49.432;8.680;2022-09-06T04:55:04;18.40;99.90
10417;DHT22;62605;49.432;8.680;2022-09-06T04:57:32;18.30;99.90
10417;DHT22;62605;49.432;8.680;2022-09-06T04:59:59;18.40;99.90
10417;DHT22;62605;49.432;8.680;2022-09-06T05:02:26;18.30;99.90
10417;DHT22;62605;49.432;8.680;2022-09-06T05:04:55;18.30;99.90
10417;DHT22;62605;49.432;8.680;2022-09-06T05:07:22;18.30;99.90
10417;DHT22;62605;49.432;8.680;2022-09-06T05:09:49;18.20;99.90
10417;DHT22;62605;49.432;8.680;2022-09-06T05:12:16;18.10;99.90
10417;DHT22;62605;49.432;8.680;2022-09-06T05:14:43;18.10;99.90
10417;DHT22;62605;49.432;8.680;2022-09-06T05:17:11;18.10;99.90
10417;DHT22;62605;49.432;8.680;2022-09-06T05:19:39;18.10;99.90
10417;DHT22;62605;49.432;8.680;2022-09-06T05:22:09;18.00;99.90
10417;DHT22;62605;49.432;8.680;2022-09-06T05:24:36;17.90;99.90
10417;DHT22;62605;49.432;8.680;2022-09-06T05:27:04;17.80;99.90
10417;DHT22;62605;49.432;8.680;2022-09-06T05:29:32;17.80;99.90
10417;DHT22;62605;49.432;8.680;2022-09-06T05:31:59;17.80;99.90
10417;DHT22;62605;49.432;8.680;2022-09-06T05:34:26;17.70;99.90
10417;DHT22;62605;49.432;8.680;2022-09-06T05:36:53;17.80;99.90
10417;DHT22;62605;49.432;8.680;2022-09-06T05:39:21;18.00;99.90
10417;DHT22;62605;49.432;8.680;2022-09-06T05:41:49;18.00;99.90
10417;DHT22;62605;49.432;8.680;2022-09-06T05:44:16;18.20;99.90
10417;DHT22;62605;49.432;8.680;2022-09-06T05:46:44;18.40;99.90
10417;DHT22;62605;49.432;8.680;2022-09-06T05:49:12;18.40;99.90
10417;DHT22;62605;49.432;8.680;2022-09-06T05:51:39;18.50;99.90
10417;DHT22;62605;49.432;8.680;2022-09-06T05:54:09;18.50;99.90
10417;DHT22;62605;49.432;8.680;2022-09-06T05:56:38;18.40;99.90
10417;DHT22;62605;49.432;8.680;2022-09-06T05:59:05;18.50;99.90
10417;DHT22;62605;49.432;8.680;2022-09-06T06:01:32;18.50;99.90
10417;DHT22;62605;49.432;8.680;2022-09-06T06:04:01;18.50;99.90
10417;DHT22;62605;49.432;8.680;2022-09-06T06:06:29;18.40;99.90
10417;DHT22;62605;49.432;8.680;2022-09-06T06:08:57;18.40;99.90
10417;DHT22;62605;49.432;8.680;2022-09-06T06:11:25;18.40;99.90
10417;DHT22;62605;49.432;8.680;2022-09-06T06:13:55;18.40;99.90
10417;DHT22;62605;49.432;8.680;2022-09-06T06:16:23;18.30;99.90
10417;DHT22;62605;49.432;8.680;2022-09-06T06:18:51;18.30;99.90
10417;DHT22;62605;49.432;8.680;2022-09-06T06:21:19;18.10;99.90
10417;DHT22;62605;49.432;8.680;2022-09-06T06:23:49;18.10;99.90
10417;DHT22;62605;49.432;8.680;2022-09-06T06:26:17;18.20;99.90
10417;DHT22;62605;49.432;8.680;2022-09-06T06:28:44;18.20;99.90
10417;DHT22;62605;49.432;8.680;2022-09-06T06:31:13;18.20;99.90
10417;DHT22;62605;49.432;8.680;2022-09-06T06:33:40;18.30;99.90
10417;DHT22;62605;49.432;8.680;2022-09-06T06:36:19;18.40;99.90
10417;DHT22;62605;49.432;8.680;2022-09-06T06:38:47;18.40;99.90
10417;DHT22;62605;49.432;8.680;2022-09-06T06:41:16;18.50;99.90
10417;DHT22;62605;49.432;8.680;2022-09-06T06:43:44;18.50;99.90
10417;DHT22;62605;49.432;8.680;2022-09-06T06:46:14;18.50;99.90
10417;DHT22;62605;49.432;8.680;2022-09-06T06:48:43;18.50;99.90
10417;DHT22;62605;49.432;8.680;2022-09-06T06:51:12;18.30;99.90
10417;DHT22;62605;49.432;8.680;2022-09-06T06:53:39;18.40;99.90
10417;DHT22;62605;49.432;8.680;2022-09-06T06:56:15;18.50;99.90
10417;DHT22;62605;49.432;8.680;2022-09-06T06:58:43;18.60;99.90
10417;DHT22;62605;49.432;8.680;2022-09-06T07:01:11;18.80;99.90
10417;DHT22;62605;49.432;8.680;2022-09-06T07:03:40;19.10;99.90
10417;DHT22;62605;49.432;8.680;2022-09-06T07:06:08;19.40;99.90
10417;DHT22;62605;49.432;8.680;2022-09-06T07:08:35;19.60;99.90
10417;DHT22;62605;49.432;8.680;2022-09-06T07:11:04;19.70;99.90
10417;DHT22;62605;49.432;8.680;2022-09-06T07:13:32;19.70;99.90
10417;DHT22;62605;49.432;8.680;2022-09-06T07:16:06;19.80;99.90
10417;DHT22;62605;49.432;8.680;2022-09-06T07:18:34;19.80;99.90
10417;DHT22;62605;49.432;8.680;2022-09-06T07:21:04;19.80;99.90
10417;DHT22;62605;49.432;8.680;2022-09-06T07:23:31;19.90;99.90
10417;DHT22;62605;49.432;8.680;2022-09-06T07:25:58;19.90;99.90
10417;DHT22;62605;49.432;8.680;2022-09-06T07:28:25;20.00;99.90
10417;DHT22;62605;49.432;8.680;2022-09-06T07:30:52;19.90;99.90
10417;DHT22;62605;49.432;8.680;2022-09-06T07:33:20;20.00;99.90
10417;DHT22;62605;49.432;8.680;2022-09-06T07:35:55;20.20;99.90
10417;DHT22;62605;49.432;8.680;2022-09-06T07:38:24;20.20;99.90
10417;DHT22;62605;49.432;8.680;2022-09-06T07:40:52;20.30;99.90
10417;DHT22;62605;49.432;8.680;2022-09-06T07:43:20;20.30;99.90
10417;DHT22;62605;49.432;8.680;2022-09-06T07:45:47;20.50;99.90
10417;DHT22;62605;49.432;8.680;2022-09-06T07:48:14;20.40;99.90
10417;DHT22;62605;49.432;8.680;2022-09-06T07:50:41;20.50;99.90
10417;DHT22;62605;49.432;8.680;2022-09-06T07:53:11;20.60;99.90
10417;DHT22;62605;49.432;8.680;2022-09-06T07:55:39;20.60;99.90
10417;DHT22;62605;49.432;8.680;2022-09-06T07:58:06;20.50;99.90
10417;DHT22;62605;49.432;8.680;2022-09-06T08:00:34;20.50;99.90
10417;DHT22;62605;49.432;8.680;2022-09-06T08:03:01;20.60;99.90
10417;DHT22;62605;49.432;8.680;2022-09-06T08:05:28;20.70;99.90
10417;DHT22;62605;49.432;8.680;2022-09-06T08:07:55;21.00;99.90
10417;DHT22;62605;49.432;8.680;2022-09-06T08:10:22;21.20;99.90
10417;DHT22;62605;49.432;8.680;2022-09-06T08:12:53;21.40;99.90
10417;DHT22;62605;49.432;8.680;2022-09-06T08:15:20;21.60;99.90
10417;DHT22;62605;49.432;8.680;2022-09-06T08:17:47;21.60;99.90
10417;DHT22;62605;49.432;8.680;2022-09-06T08:20:15;21.80;99.90
10417;DHT22;62605;49.432;8.680;2022-09-06T08:22:42;22.00;99.90
10417;DHT22;62605;49.432;8.680;2022-09-06T08:25:10;21.80;99.90
10417;DHT22;62605;49.432;8.680;2022-09-06T08:27:37;21.70;99.90
10417;DHT22;62605;49.432;8.680;2022-09-06T08:30:07;21.80;99.90
10417;DHT22;62605;49.432;8.680;2022-09-06T08:32:34;21.90;99.90
10417;DHT22;62605;49.432;8.680;2022-09-06T08:35:04;21.80;99.90
10417;DHT22;62605;49.432;8.680;2022-09-06T08:37:31;21.70;99.90
10417;DHT22;62605;49.432;8.680;2022-09-06T08:39:58;21.60;99.90
10417;DHT22;62605;49.432;8.680;2022-09-06T08:42:25;21.70;99.90
10417;DHT22;62605;49.432;8.680;2022-09-06T08:44:52;21.90;99.90
10417;DHT22;62605;49.432;8.680;2022-09-06T08:47:24;22.10;99.90
10417;DHT22;62605;49.432;8.680;2022-09-06T08:49:53;22.30;99.90
10417;DHT22;62605;49.432;8.680;2022-09-06T08:52:46;22.40;99.90
10417;DHT22;62605;49.432;8.680;2022-09-06T08:55:33;22.40;99.90
10417;DHT22;62605;49.432;8.680;2022-09-06T08:58:17;22.60;99.90
10417;DHT22;62605;49.432;8.680;2022-09-06T09:00:50;22.70;99.90
10417;DHT22;62605;49.432;8.680;2022-09-06T09:03:25;22.80;99.90
10417;DHT22;62605;49.432;8.680;2022-09-06T09:05:56;23.10;99.90
10417;DHT22;62605;49.432;8.680;2022-09-06T09:08:26;23.40;99.90
10417;DHT22;62605;49.432;8.680;2022-09-06T09:10:58;23.70;99.90
10417;DHT22;62605;49.432;8.680;2022-09-06T09:13:32;24.10;99.90
10417;DHT22;62605;49.432;8.680;2022-09-06T09:16:01;24.40;99.90
10417;DHT22;62605;49.432;8.680;2022-09-06T09:18:32;24.50;99.90
10417;DHT22;62605;49.432;8.680;2022-09-06T09:20:59;24.50;99.90
10417;DHT22;62605;49.432;8.680;2022-09-06T09:23:28;24.70;99.90
10417;DHT22;62605;49.432;8.680;2022-09-06T09:25:59;24.80;99.90
10417;DHT22;62605;49.432;8.680;2022-09-06T09:28:27;24.90;99.90
10417;DHT22;62605;49.432;8.680;2022-09-06T09:30:55;25.20;99.90
10417;DHT22;62605;49.432;8.680;2022-09-06T09:33:29;25.10;99.90
10417;DHT22;62605;49.432;8.680;2022-09-06T09:36:00;25.50;99.90
10417;DHT22;62605;49.432;8.680;2022-09-06T09:38:30;25.40;99.90
10417;DHT22;62605;49.432;8.680;2022-09-06T09:41:00;25.60;99.90
10417;DHT22;62605;49.432;8.680;2022-09-06T09:43:30;25.80;99.90
10417;DHT22;62605;49.432;8.680;2022-09-06T09:46:09;25.90;99.90
10417;DHT22;62605;49.432;8.680;2022-09-06T09:48:39;25.80;99.90
10417;DHT22;62605;49.432;8.680;2022-09-06T09:51:21;25.80;99.90
10417;DHT22;62605;49.432;8.680;2022-09-06T09:53:50;25.90;99.90
10417;DHT22;62605;49.432;8.680;2022-09-06T09:56:27;25.90;99.90
10417;DHT22;62605;49.432;8.680;2022-09-06T09:58:56;25.60;99.90
10417;DHT22;62605;49.432;8.680;2022-09-06T10:01:26;25.80;99.90
10417;DHT22;62605;49.432;8.680;2022-09-06T10:04:07;25.80;99.90
10417;DHT22;62605;49.432;8.680;2022-09-06T10:06:35;25.70;99.90
10417;DHT22;62605;49.432;8.680;2022-09-06T10:09:14;25.80;99.90
10417;DHT22;62605;49.432;8.680;2022-09-06T10:11:55;26.00;99.90
10417;DHT22;62605;49.432;8.680;2022-09-06T10:14:28;25.90;99.90
10417;DHT22;62605;49.432;8.680;2022-09-06T10:16:56;25.90;99.90
10417;DHT22;62605;49.432;8.680;2022-09-06T10:19:40;25.90;99.90
10417;DHT22;62605;49.432;8.680;2022-09-06T10:22:23;25.90;99.90
10417;DHT22;62605;49.432;8.680;2022-09-06T10:25:34;25.90;99.90
10417;DHT22;62605;49.432;8.680;2022-09-06T10:31:12;26.40;99.90
10417;DHT22;62605;49.432;8.680;2022-09-06T10:33:53;26.10;99.90
10417;DHT22;62605;49.432;8.680;2022-09-06T10:36:28;25.90;99.90
10417;DHT22;62605;49.432;8.680;2022-09-06T10:39:01;25.90;99.90
10417;DHT22;62605;49.432;8.680;2022-09-06T10:41:50;26.20;99.90
10417;DHT22;62605;49.432;8.680;2022-09-06T10:44:33;26.20;99.90
10417;DHT22;62605;49.432;8.680;2022-09-06T10:47:07;26.30;99.90
10417;DHT22;62605;49.432;8.680;2022-09-06T10:49:37;26.70;99.90
10417;DHT22;62605;49.432;8.680;2022-09-06T10:52:14;26.90;99.90
10417;DHT22;62605;49.432;8.680;2022-09-06T10:54:44;26.90;99.90
10417;DHT22;62605;49.432;8.680;2022-09-06T10:57:18;27.00;99.90
10417;DHT22;62605;49.432;8.680;2022-09-06T10:59:50;27.10;99.90
10417;DHT22;62605;49.432;8.680;2022-09-06T11:02:32;27.00;99.90
10417;DHT22;62605;49.432;8.680;2022-09-06T11:05:07;27.00;99.90
10417;DHT22;62605;49.432;8.680;2022-09-06T11:07:40;27.00;99.90
10417;DHT22;62605;49.432;8.680;2022-09-06T11:10:15;27.30;99.90
10417;DHT22;62605;49.432;8.680;2022-09-06T11:12:48;27.40;99.90
10417;DHT22;62605;49.432;8.680;2022-09-06T11:15:17;27.30;99.90
10417;DHT22;62605;49.432;8.680;2022-09-06T11:17:48;27.50;99.90
10417;DHT22;62605;49.432;8.680;2022-09-06T11:20:23;27.50;99.90
10417;DHT22;62605;49.432;8.680;2022-09-06T11:23:09;27.50;99.90
10417;DHT22;62605;49.432;8.680;2022-09-06T11:26:03;27.60;99.90
10417;DHT22;62605;49.432;8.680;2022-09-06T11:28:35;27.80;99.90
10417;DHT22;62605;49.432;8.680;2022-09-06T11:31:05;28.00;99.90
10417;DHT22;62605;49.432;8.680;2022-09-06T11:33:35;28.00;99.90
10417;DHT22;62605;49.432;8.680;2022-09-06T11:36:22;27.90;99.90
10417;DHT22;62605;49.432;8.680;2022-09-06T11:38:57;27.80;99.90
10417;DHT22;62605;49.432;8.680;2022-09-06T11:41:29;27.90;99.90
10417;DHT22;62605;49.432;8.680;2022-09-06T11:43:57;28.20;99.90
10417;DHT22;62605;49.432;8.680;2022-09-06T11:46:59;28.40;99.90
10417;DHT22;62605;49.432;8.680;2022-09-06T11:49:34;28.20;99.90
10417;DHT22;62605;49.432;8.680;2022-09-06T11:55:35;28.10;99.90
10417;DHT22;62605;49.432;8.680;2022-09-06T11:58:08;28.10;99.90
10417;DHT22;62605;49.432;8.680;2022-09-06T12:00:37;28.20;99.90
10417;DHT22;62605;49.432;8.680;2022-09-06T12:03:07;28.30;99.90
10417;DHT22;62605;49.432;8.680;2022-09-06T12:06:14;28.30;99.90
10417;DHT22;62605;49.432;8.680;2022-09-06T12:08:42;28.40;99.90
10417;DHT22;62605;49.432;8.680;2022-09-06T12:11:27;28.50;99.90
10417;DHT22;62605;49.432;8.680;2022-09-06T12:13:59;28.90;99.90
10417;DHT22;62605;49.432;8.680;2022-09-06T12:19:44;29.10;99.90
10417;DHT22;62605;49.432;8.680;2022-09-06T12:26:01;28.80;99.90
10417;DHT22;62605;49.432;8.680;2022-09-06T12:28:34;29.00;99.90
10417;DHT22;62605;49.432;8.680;2022-09-06T12:31:24;29.00;99.90
10417;DHT22;62605;49.432;8.680;2022-09-06T12:33:54;29.30;99.90
10417;DHT22;62605;49.432;8.680;2022-09-06T12:36:24;29.30;99.90
10417;DHT22;62605;49.432;8.680;2022-09-06T12:38:59;29.50;99.90
10417;DHT22;62605;49.432;8.680;2022-09-06T12:41:28;29.50;99.90
10417;DHT22;62605;49.432;8.680;2022-09-06T12:43:59;29.60;99.90
10417;DHT22;62605;49.432;8.680;2022-09-06T12:46:29;29.60;99.90
10417;DHT22;62605;49.432;8.680;2022-09-06T12:49:06;29.40;99.90
10417;DHT22;62605;49.432;8.680;2022-09-06T12:51:34;29.50;99.90
10417;DHT22;62605;49.432;8.680;2022-09-06T12:54:04;29.60;99.90
10417;DHT22;62605;49.432;8.680;2022-09-06T12:56:32;29.60;99.90
10417;DHT22;62605;49.432;8.680;2022-09-06T12:59:15;29.90;99.90
10417;DHT22;62605;49.432;8.680;2022-09-06T13:01:50;29.90;99.90
10417;DHT22;62605;49.432;8.680;2022-09-06T13:04:26;30.10;99.90
10417;DHT22;62605;49.432;8.680;2022-09-06T13:06:55;30.00;99.90
10417;DHT22;62605;49.432;8.680;2022-09-06T13:09:23;29.90;99.90
10417;DHT22;62605;49.432;8.680;2022-09-06T13:12:00;29.40;99.90
10417;DHT22;62605;49.432;8.680;2022-09-06T13:14:31;29.10;99.90
10417;DHT22;62605;49.432;8.680;2022-09-06T13:16:59;28.70;99.90
10417;DHT22;62605;49.432;8.680;2022-09-06T13:19:31;28.80;99.90
10417;DHT22;62605;49.432;8.680;2022-09-06T13:21:59;28.90;99.90
10417;DHT22;62605;49.432;8.680;2022-09-06T13:24:42;28.90;99.90
10417;DHT22;62605;49.432;8.680;2022-09-06T13:27:23;29.00;99.90
10417;DHT22;62605;49.432;8.680;2022-09-06T13:29:56;28.80;99.90
10417;DHT22;62605;49.432;8.680;2022-09-06T13:32:23;28.80;99.90
10417;DHT22;62605;49.432;8.680;2022-09-06T13:34:51;28.90;99.90
10417;DHT22;62605;49.432;8.680;2022-09-06T13:37:22;29.10;99.90
10417;DHT22;62605;49.432;8.680;2022-09-06T13:39:51;29.10;99.90
10417;DHT22;62605;49.432;8.680;2022-09-06T13:42:27;29.00;99.90
10417;DHT22;62605;49.432;8.680;2022-09-06T13:44:56;28.90;99.90
10417;DHT22;62605;49.432;8.680;2022-09-06T13:47:26;28.90;99.90
10417;DHT22;62605;49.432;8.680;2022-09-06T13:49:54;28.90;99.90
10417;DHT22;62605;49.432;8.680;2022-09-06T13:52:21;28.90;99.90
10417;DHT22;62605;49.432;8.680;2022-09-06T13:54:49;28.90;99.90
10417;DHT22;62605;49.432;8.680;2022-09-06T13:57:17;28.90;99.90
10417;DHT22;62605;49.432;8.680;2022-09-06T13:59:44;28.70;99.90
10417;DHT22;62605;49.432;8.680;2022-09-06T14:02:13;28.70;99.90
10417;DHT22;62605;49.432;8.680;2022-09-06T14:04:42;28.70;99.90
10417;DHT22;62605;49.432;8.680;2022-09-06T14:07:09;28.60;99.90
10417;DHT22;62605;49.432;8.680;2022-09-06T14:09:36;28.60;99.90
10417;DHT22;62605;49.432;8.680;2022-09-06T14:12:04;28.70;99.90
10417;DHT22;62605;49.432;8.680;2022-09-06T14:14:32;28.90;99.90
10417;DHT22;62605;49.432;8.680;2022-09-06T14:17:00;28.80;99.90
10417;DHT22;62605;49.432;8.680;2022-09-06T14:19:28;29.00;99.90
10417;DHT22;62605;49.432;8.680;2022-09-06T14:21:56;29.30;99.90
10417;DHT22;62605;49.432;8.680;2022-09-06T14:24:23;29.40;99.90
10417;DHT22;62605;49.432;8.680;2022-09-06T14:26:50;29.10;99.90
10417;DHT22;62605;49.432;8.680;2022-09-06T14:29:17;28.80;99.90
10417;DHT22;62605;49.432;8.680;2022-09-06T14:31:44;28.50;99.90
10417;DHT22;62605;49.432;8.680;2022-09-06T14:34:13;28.50;99.90
10417;DHT22;62605;49.432;8.680;2022-09-06T14:36:41;28.40;99.90
10417;DHT22;62605;49.432;8.680;2022-09-06T14:39:08;28.40;99.90
10417;DHT22;62605;49.432;8.680;2022-09-06T14:41:35;28.20;99.90
10417;DHT22;62605;49.432;8.680;2022-09-06T14:44:03;28.30;99.90
10417;DHT22;62605;49.432;8.680;2022-09-06T14:46:30;28.50;99.90
10417;DHT22;62605;49.432;8.680;2022-09-06T14:48:59;28.80;99.90
10417;DHT22;62605;49.432;8.680;2022-09-06T14:51:27;29.30;99.90
10417;DHT22;62605;49.432;8.680;2022-09-06T14:53:57;29.40;99.90
10417;DHT22;62605;49.432;8.680;2022-09-06T14:56:25;29.30;99.90
10417;DHT22;62605;49.432;8.680;2022-09-06T14:58:53;29.10;99.90
10417;DHT22;62605;49.432;8.680;2022-09-06T15:01:24;28.70;99.90
10417;DHT22;62605;49.432;8.680;2022-09-06T15:03:53;28.30;99.90
10417;DHT22;62605;49.432;8.680;2022-09-06T15:06:23;28.30;99.90
10417;DHT22;62605;49.432;8.680;2022-09-06T15:08:51;28.10;99.90
10417;DHT22;62605;49.432;8.680;2022-09-06T15:11:31;27.90;99.90
10417;DHT22;62605;49.432;8.680;2022-09-06T15:14:01;27.80;99.90
10417;DHT22;62605;49.432;8.680;2022-09-06T15:16:29;27.90;99.90
10417;DHT22;62605;49.432;8.680;2022-09-06T15:18:57;27.80;99.90
10417;DHT22;62605;49.432;8.680;2022-09-06T15:21:25;28.00;99.90
10417;DHT22;62605;49.432;8.680;2022-09-06T15:23:52;28.00;99.90
10417;DHT22;62605;49.432;8.680;2022-09-06T15:26:20;27.80;99.90
10417;DHT22;62605;49.432;8.680;2022-09-06T15:28:48;27.90;99.90
10417;DHT22;62605;49.432;8.680;2022-09-06T15:31:16;27.90;99.90
10417;DHT22;62605;49.432;8.680;2022-09-06T15:33:44;27.80;99.90
10417;DHT22;62605;49.432;8.680;2022-09-06T15:36:14;27.80;99.90
10417;DHT22;62605;49.432;8.680;2022-09-06T15:38:42;27.70;99.90
10417;DHT22;62605;49.432;8.680;2022-09-06T15:41:13;28.00;99.90
10417;DHT22;62605;49.432;8.680;2022-09-06T15:43:43;28.10;99.90
10417;DHT22;62605;49.432;8.680;2022-09-06T15:46:14;28.00;99.90
10417;DHT22;62605;49.432;8.680;2022-09-06T15:48:43;27.80;99.90
10417;DHT22;62605;49.432;8.680;2022-09-06T15:51:12;27.60;99.90
10417;DHT22;62605;49.432;8.680;2022-09-06T15:53:40;27.50;99.90
10417;DHT22;62605;49.432;8.680;2022-09-06T15:56:09;27.40;99.90
10417;DHT22;62605;49.432;8.680;2022-09-06T15:58:37;27.30;99.90
10417;DHT22;62605;49.432;8.680;2022-09-06T16:01:06;27.20;99.90
10417;DHT22;62605;49.432;8.680;2022-09-06T16:03:37;27.10;99.90
10417;DHT22;62605;49.432;8.680;2022-09-06T16:06:07;27.20;99.90
10417;DHT22;62605;49.432;8.680;2022-09-06T16:08:35;27.10;99.90